Skip Navigation LinksHome page > Weather > Current weather Skip Navigation Links

Current Weather

John Wayne Airport-Orange County, Santa Ana, Calif.

For information only: do not use for flight planning or navigation.
Latest weather
Observation time Sunday, May 26, 2019 8:35 AM PDT
Local time Sunday, May 26, 2019 8:47 AM PDT
Flight conditions Visual Meteorological Conditions
Winds
Wind direction West-Southwest (250°)
Wind speed 8 mph
Visibility 9 mi.
Sky condition
Ceiling 5,000 ft. broken clouds
Cloud layer few clouds 2,000 ft.
Cloud layer scattered clouds 2,800 ft.
Cloud layer broken clouds 5,000 ft.
Temperature 59°F
Dewpoint 49°F
Altimeter 29.92 in.Hg
Derived measurements
Relative humidity 69%
Density altitude 225 ft.
Remarks
Automated weather observing station with precipitation discriminator.
METAR KSNA 261535Z 25007KT 9SM FEW020 SCT028 BKN050 15/09 A2992 RMK AO2 T01500094

Settings

Location code

InnerDrive.Weather 4.0.6770.0 Release CLR 4.0.30319.42000
Copyright ©2018 Inner Drive Technology. All rights reserved. Portions Copyright ©1986-2018 David Braverman.

Find weather

Site navigation


Skip Navigation Links

Place info

Page info

PayPal - The safer, easier way to pay online!

Return home.

Copyright ©2019 Inner Drive Technology. Purveyors of fine, hand-crafted computer software. Page printed 2019-05-26T15:47:37 UTC.